sensor_id;sensor_type;location;lat;lon;timestamp;temperature;humidity
16643;DHT22;8435;52.184;5.406;2024-01-15T00:00:28;4.40;99.90
16643;DHT22;8435;52.184;5.406;2024-01-15T00:02:56;4.40;99.90
16643;DHT22;8435;52.184;5.406;2024-01-15T00:05:23;4.40;99.90
16643;DHT22;8435;52.184;5.406;2024-01-15T00:07:52;4.30;99.90
16643;DHT22;8435;52.184;5.406;2024-01-15T00:10:19;4.30;99.90
16643;DHT22;8435;52.184;5.406;2024-01-15T00:12:46;4.30;99.90
16643;DHT22;8435;52.184;5.406;2024-01-15T00:15:13;4.30;99.90
16643;DHT22;8435;52.184;5.406;2024-01-15T00:17:40;4.20;99.90
16643;DHT22;8435;52.184;5.406;2024-01-15T00:20:12;4.20;99.90
16643;DHT22;8435;52.184;5.406;2024-01-15T00:22:41;4.20;99.90
16643;DHT22;8435;52.184;5.406;2024-01-15T00:25:11;4.10;99.90
16643;DHT22;8435;52.184;5.406;2024-01-15T00:27:38;4.10;99.90
16643;DHT22;8435;52.184;5.406;2024-01-15T00:30:05;4.10;99.90
16643;DHT22;8435;52.184;5.406;2024-01-15T00:32:32;4.10;99.90
16643;DHT22;8435;52.184;5.406;2024-01-15T00:35:00;4.00;99.90
16643;DHT22;8435;52.184;5.406;2024-01-15T00:37:30;4.00;99.90
16643;DHT22;8435;52.184;5.406;2024-01-15T00:39:59;4.00;99.90
16643;DHT22;8435;52.184;5.406;2024-01-15T00:42:27;3.90;99.90
16643;DHT22;8435;52.184;5.406;2024-01-15T00:44:54;3.90;99.90
16643;DHT22;8435;52.184;5.406;2024-01-15T00:47:23;3.90;99.90
16643;DHT22;8435;52.184;5.406;2024-01-15T00:49:50;3.90;99.90
16643;DHT22;8435;52.184;5.406;2024-01-15T00:52:20;3.90;99.90
16643;DHT22;8435;52.184;5.406;2024-01-15T00:54:48;3.90;99.90
16643;DHT22;8435;52.184;5.406;2024-01-15T00:57:15;3.90;99.90
16643;DHT22;8435;52.184;5.406;2024-01-15T00:59:42;3.80;99.90
16643;DHT22;8435;52.184;5.406;2024-01-15T01:02:08;3.80;99.90
16643;DHT22;8435;52.184;5.406;2024-01-15T01:04:35;3.80;99.90
16643;DHT22;8435;52.184;5.406;2024-01-15T01:07:02;3.80;99.90
16643;DHT22;8435;52.184;5.406;2024-01-15T01:09:29;3.80;99.90
16643;DHT22;8435;52.184;5.406;2024-01-15T01:11:57;3.80;99.90
16643;DHT22;8435;52.184;5.406;2024-01-15T01:14:24;3.80;99.90
16643;DHT22;8435;52.184;5.406;2024-01-15T01:16:51;3.80;99.90
16643;DHT22;8435;52.184;5.406;2024-01-15T01:19:17;3.80;99.90
16643;DHT22;8435;52.184;5.406;2024-01-15T01:21:46;3.80;99.90
16643;DHT22;8435;52.184;5.406;2024-01-15T01:24:13;3.80;99.90
16643;DHT22;8435;52.184;5.406;2024-01-15T01:26:39;3.80;99.90
16643;DHT22;8435;52.184;5.406;2024-01-15T01:29:07;3.80;99.90
16643;DHT22;8435;52.184;5.406;2024-01-15T01:31:34;3.80;99.90
16643;DHT22;8435;52.184;5.406;2024-01-15T01:34:01;3.80;99.90
16643;DHT22;8435;52.184;5.406;2024-01-15T01:36:28;3.80;99.90
16643;DHT22;8435;52.184;5.406;2024-01-15T01:38:54;3.80;99.90
16643;DHT22;8435;52.184;5.406;2024-01-15T01:41:21;3.80;99.90
16643;DHT22;8435;52.184;5.406;2024-01-15T01:43:49;3.80;99.90
16643;DHT22;8435;52.184;5.406;2024-01-15T01:46:18;3.80;99.90
16643;DHT22;8435;52.184;5.406;2024-01-15T01:48:48;3.80;99.90
16643;DHT22;8435;52.184;5.406;2024-01-15T01:51:15;3.80;99.90
16643;DHT22;8435;52.184;5.406;2024-01-15T01:53:43;3.80;99.90
16643;DHT22;8435;52.184;5.406;2024-01-15T01:56:11;3.80;99.90
16643;DHT22;8435;52.184;5.406;2024-01-15T01:58:38;3.80;99.90
16643;DHT22;8435;52.184;5.406;2024-01-15T02:01:05;3.80;99.90
16643;DHT22;8435;52.184;5.406;2024-01-15T02:03:34;3.70;99.90
16643;DHT22;8435;52.184;5.406;2024-01-15T02:06:01;3.80;99.90
16643;DHT22;8435;52.184;5.406;2024-01-15T02:08:29;3.80;99.90
16643;DHT22;8435;52.184;5.406;2024-01-15T02:10:56;3.80;99.90
16643;DHT22;8435;52.184;5.406;2024-01-15T02:13:23;3.80;99.90
16643;DHT22;8435;52.184;5.406;2024-01-15T02:16:01;3.80;99.90
16643;DHT22;8435;52.184;5.406;2024-01-15T02:18:27;3.80;99.90
16643;DHT22;8435;52.184;5.406;2024-01-15T02:20:55;3.80;99.90
16643;DHT22;8435;52.184;5.406;2024-01-15T02:23:24;3.90;99.90
16643;DHT22;8435;52.184;5.406;2024-01-15T02:25:50;3.90;99.90
16643;DHT22;8435;52.184;5.406;2024-01-15T02:28:17;3.90;99.90
16643;DHT22;8435;52.184;5.406;2024-01-15T02:30:44;3.90;99.90
16643;DHT22;8435;52.184;5.406;2024-01-15T02:33:11;3.90;99.90
16643;DHT22;8435;52.184;5.406;2024-01-15T02:35:38;3.90;99.90
16643;DHT22;8435;52.184;5.406;2024-01-15T02:38:06;3.90;99.90
16643;DHT22;8435;52.184;5.406;2024-01-15T02:40:38;3.90;99.90
16643;DHT22;8435;52.184;5.406;2024-01-15T02:43:05;3.90;99.90
16643;DHT22;8435;52.184;5.406;2024-01-15T02:45:32;3.90;99.90
16643;DHT22;8435;52.184;5.406;2024-01-15T02:47:59;3.90;99.90
16643;DHT22;8435;52.184;5.406;2024-01-15T02:50:26;3.90;99.90
16643;DHT22;8435;52.184;5.406;2024-01-15T02:52:52;3.90;99.90
16643;DHT22;8435;52.184;5.406;2024-01-15T02:55:19;4.00;99.90
16643;DHT22;8435;52.184;5.406;2024-01-15T02:57:52;4.00;99.90
16643;DHT22;8435;52.184;5.406;2024-01-15T03:00:21;4.00;99.90
16643;DHT22;8435;52.184;5.406;2024-01-15T03:02:50;4.00;99.90
16643;DHT22;8435;52.184;5.406;2024-01-15T03:05:17;4.00;99.90
16643;DHT22;8435;52.184;5.406;2024-01-15T03:07:44;4.00;99.90
16643;DHT22;8435;52.184;5.406;2024-01-15T03:10:11;4.10;99.90
16643;DHT22;8435;52.184;5.406;2024-01-15T03:12:38;4.10;99.90
16643;DHT22;8435;52.184;5.406;2024-01-15T03:15:07;4.20;99.90
16643;DHT22;8435;52.184;5.406;2024-01-15T03:17:33;4.20;99.90
16643;DHT22;8435;52.184;5.406;2024-01-15T03:20:04;4.20;99.90
16643;DHT22;8435;52.184;5.406;2024-01-15T03:22:32;4.30;99.90
16643;DHT22;8435;52.184;5.406;2024-01-15T03:24:59;4.30;99.90
16643;DHT22;8435;52.184;5.406;2024-01-15T03:27:26;4.40;99.90
16643;DHT22;8435;52.184;5.406;2024-01-15T03:29:53;4.40;99.90
16643;DHT22;8435;52.184;5.406;2024-01-15T03:32:21;4.50;99.90
16643;DHT22;8435;52.184;5.406;2024-01-15T03:34:48;4.50;99.90
16643;DHT22;8435;52.184;5.406;2024-01-15T03:37:14;4.60;99.90
16643;DHT22;8435;52.184;5.406;2024-01-15T03:39:41;4.60;99.90
16643;DHT22;8435;52.184;5.406;2024-01-15T03:42:08;4.60;99.90
16643;DHT22;8435;52.184;5.406;2024-01-15T03:44:35;4.70;99.90
16643;DHT22;8435;52.184;5.406;2024-01-15T03:47:01;4.70;99.90
16643;DHT22;8435;52.184;5.406;2024-01-15T03:49:30;4.70;99.90
16643;DHT22;8435;52.184;5.406;2024-01-15T03:51:56;4.70;99.90
16643;DHT22;8435;52.184;5.406;2024-01-15T03:54:23;4.70;99.90
16643;DHT22;8435;52.184;5.406;2024-01-15T03:56:50;4.70;99.90
16643;DHT22;8435;52.184;5.406;2024-01-15T03:59:17;4.70;99.90
16643;DHT22;8435;52.184;5.406;2024-01-15T04:01:48;4.70;99.90
16643;DHT22;8435;52.184;5.406;2024-01-15T04:04:19;4.60;99.90
16643;DHT22;8435;52.184;5.406;2024-01-15T04:06:47;4.60;99.90
16643;DHT22;8435;52.184;5.406;2024-01-15T04:09:14;4.60;99.90
16643;DHT22;8435;52.184;5.406;2024-01-15T04:11:40;4.50;99.90
16643;DHT22;8435;52.184;5.406;2024-01-15T04:14:07;4.50;99.90
16643;DHT22;8435;52.184;5.406;2024-01-15T04:16:34;4.40;99.90
16643;DHT22;8435;52.184;5.406;2024-01-15T04:19:01;4.40;99.90
16643;DHT22;8435;52.184;5.406;2024-01-15T04:21:27;4.30;99.90
16643;DHT22;8435;52.184;5.406;2024-01-15T04:23:55;4.30;99.90
16643;DHT22;8435;52.184;5.406;2024-01-15T04:26:22;4.20;99.90
16643;DHT22;8435;52.184;5.406;2024-01-15T04:28:49;4.20;99.90
16643;DHT22;8435;52.184;5.406;2024-01-15T04:31:24;4.20;99.90
16643;DHT22;8435;52.184;5.406;2024-01-15T04:33:52;4.20;99.90
16643;DHT22;8435;52.184;5.406;2024-01-15T04:36:20;4.10;99.90
16643;DHT22;8435;52.184;5.406;2024-01-15T04:38:47;4.10;99.90
16643;DHT22;8435;52.184;5.406;2024-01-15T04:41:16;4.10;99.90
16643;DHT22;8435;52.184;5.406;2024-01-15T04:43:43;4.00;99.90
16643;DHT22;8435;52.184;5.406;2024-01-15T04:46:10;4.00;99.90
16643;DHT22;8435;52.184;5.406;2024-01-15T04:48:37;4.00;99.90
16643;DHT22;8435;52.184;5.406;2024-01-15T04:51:04;4.00;99.90
16643;DHT22;8435;52.184;5.406;2024-01-15T04:53:32;4.00;99.90
16643;DHT22;8435;52.184;5.406;2024-01-15T04:55:59;4.00;99.90
16643;DHT22;8435;52.184;5.406;2024-01-15T04:58:28;4.00;99.90
16643;DHT22;8435;52.184;5.406;2024-01-15T05:00:57;4.00;99.90
16643;DHT22;8435;52.184;5.406;2024-01-15T05:03:23;4.10;99.90
16643;DHT22;8435;52.184;5.406;2024-01-15T05:05:50;4.10;99.90
16643;DHT22;8435;52.184;5.406;2024-01-15T05:08:17;4.10;99.90
16643;DHT22;8435;52.184;5.406;2024-01-15T05:10:44;4.10;99.90
16643;DHT22;8435;52.184;5.406;2024-01-15T05:13:14;4.10;99.90
16643;DHT22;8435;52.184;5.406;2024-01-15T05:15:42;4.20;99.90
16643;DHT22;8435;52.184;5.406;2024-01-15T05:18:09;4.20;99.90
16643;DHT22;8435;52.184;5.406;2024-01-15T05:20:36;4.20;99.90
16643;DHT22;8435;52.184;5.406;2024-01-15T05:23:03;4.30;99.90
16643;DHT22;8435;52.184;5.406;2024-01-15T05:25:30;4.30;99.90
16643;DHT22;8435;52.184;5.406;2024-01-15T05:27:57;4.30;99.90
16643;DHT22;8435;52.184;5.406;2024-01-15T05:30:24;4.30;99.90
16643;DHT22;8435;52.184;5.406;2024-01-15T05:32:54;4.30;99.90
16643;DHT22;8435;52.184;5.406;2024-01-15T05:35:21;4.30;99.90
16643;DHT22;8435;52.184;5.406;2024-01-15T05:37:50;4.30;99.90
16643;DHT22;8435;52.184;5.406;2024-01-15T05:40:17;4.30;99.90
16643;DHT22;8435;52.184;5.406;2024-01-15T05:42:43;4.30;99.90
16643;DHT22;8435;52.184;5.406;2024-01-15T05:45:12;4.40;99.90
16643;DHT22;8435;52.184;5.406;2024-01-15T05:47:39;4.40;99.90
16643;DHT22;8435;52.184;5.406;2024-01-15T05:50:08;4.40;99.90
16643;DHT22;8435;52.184;5.406;2024-01-15T05:52:35;4.40;99.90
16643;DHT22;8435;52.184;5.406;2024-01-15T05:55:04;4.40;99.90
16643;DHT22;8435;52.184;5.406;2024-01-15T05:57:31;4.40;99.90
16643;DHT22;8435;52.184;5.406;2024-01-15T05:59:57;4.40;99.90
16643;DHT22;8435;52.184;5.406;2024-01-15T06:02:24;4.40;99.90
16643;DHT22;8435;52.184;5.406;2024-01-15T06:04:51;4.40;99.90
16643;DHT22;8435;52.184;5.406;2024-01-15T06:07:19;4.40;99.90
16643;DHT22;8435;52.184;5.406;2024-01-15T06:09:46;4.50;99.90
16643;DHT22;8435;52.184;5.406;2024-01-15T06:12:12;4.40;99.90
16643;DHT22;8435;52.184;5.406;2024-01-15T06:14:39;4.40;99.90
16643;DHT22;8435;52.184;5.406;2024-01-15T06:17:07;4.30;99.90
16643;DHT22;8435;52.184;5.406;2024-01-15T06:19:34;4.30;99.90
16643;DHT22;8435;52.184;5.406;2024-01-15T06:22:00;4.30;99.90
16643;DHT22;8435;52.184;5.406;2024-01-15T06:24:30;4.20;99.90
16643;DHT22;8435;52.184;5.406;2024-01-15T06:26:57;4.20;99.90
16643;DHT22;8435;52.184;5.406;2024-01-15T06:29:25;4.20;99.90
16643;DHT22;8435;52.184;5.406;2024-01-15T06:31:52;4.20;99.90
16643;DHT22;8435;52.184;5.406;2024-01-15T06:34:19;4.10;99.90
16643;DHT22;8435;52.184;5.406;2024-01-15T06:36:46;4.10;99.90
16643;DHT22;8435;52.184;5.406;2024-01-15T06:39:12;4.10;99.90
16643;DHT22;8435;52.184;5.406;2024-01-15T06:41:40;4.10;99.90
16643;DHT22;8435;52.184;5.406;2024-01-15T06:44:09;4.00;99.90
16643;DHT22;8435;52.184;5.406;2024-01-15T06:46:36;4.00;99.90
16643;DHT22;8435;52.184;5.406;2024-01-15T06:49:03;4.00;99.90
16643;DHT22;8435;52.184;5.406;2024-01-15T06:51:36;4.00;99.90
16643;DHT22;8435;52.184;5.406;2024-01-15T06:54:05;3.90;99.90
16643;DHT22;8435;52.184;5.406;2024-01-15T06:56:32;3.90;99.90
16643;DHT22;8435;52.184;5.406;2024-01-15T06:59:00;3.90;99.90
16643;DHT22;8435;52.184;5.406;2024-01-15T07:01:28;3.90;99.90
16643;DHT22;8435;52.184;5.406;2024-01-15T07:03:58;3.80;99.90
16643;DHT22;8435;52.184;5.406;2024-01-15T07:06:25;3.80;99.90
16643;DHT22;8435;52.184;5.406;2024-01-15T07:08:51;3.80;99.90
16643;DHT22;8435;52.184;5.406;2024-01-15T07:11:18;3.90;99.90
16643;DHT22;8435;52.184;5.406;2024-01-15T07:13:45;3.80;99.90
16643;DHT22;8435;52.184;5.406;2024-01-15T07:16:16;3.90;99.90
16643;DHT22;8435;52.184;5.406;2024-01-15T07:18:42;3.90;99.90
16643;DHT22;8435;52.184;5.406;2024-01-15T07:21:09;3.90;99.90
16643;DHT22;8435;52.184;5.406;2024-01-15T07:23:36;3.90;99.90
16643;DHT22;8435;52.184;5.406;2024-01-15T07:26:04;3.90;99.90
16643;DHT22;8435;52.184;5.406;2024-01-15T07:28:31;3.90;99.90
16643;DHT22;8435;52.184;5.406;2024-01-15T07:30:58;3.90;99.90
16643;DHT22;8435;52.184;5.406;2024-01-15T07:33:28;3.90;99.90
16643;DHT22;8435;52.184;5.406;2024-01-15T07:35:54;3.90;99.90
16643;DHT22;8435;52.184;5.406;2024-01-15T07:38:21;3.90;99.90
16643;DHT22;8435;52.184;5.406;2024-01-15T07:40:48;3.90;99.90
16643;DHT22;8435;52.184;5.406;2024-01-15T07:43:15;3.90;99.90
16643;DHT22;8435;52.184;5.406;2024-01-15T07:45:44;3.90;99.90
16643;DHT22;8435;52.184;5.406;2024-01-15T07:48:12;4.00;99.90
16643;DHT22;8435;52.184;5.406;2024-01-15T07:50:47;4.00;99.90
16643;DHT22;8435;52.184;5.406;2024-01-15T07:53:14;4.10;99.90
16643;DHT22;8435;52.184;5.406;2024-01-15T07:55:41;4.10;99.90
16643;DHT22;8435;52.184;5.406;2024-01-15T07:58:07;4.10;99.90
16643;DHT22;8435;52.184;5.406;2024-01-15T08:00:34;4.10;99.90
16643;DHT22;8435;52.184;5.406;2024-01-15T08:03:01;4.20;99.90
16643;DHT22;8435;52.184;5.406;2024-01-15T08:05:32;4.20;99.90
16643;DHT22;8435;52.184;5.406;2024-01-15T08:08:00;4.20;99.90
16643;DHT22;8435;52.184;5.406;2024-01-15T08:10:36;4.10;99.90
16643;DHT22;8435;52.184;5.406;2024-01-15T08:13:03;4.20;99.90
16643;DHT22;8435;52.184;5.406;2024-01-15T08:15:30;4.10;99.90
16643;DHT22;8435;52.184;5.406;2024-01-15T08:17:56;4.20;99.90
16643;DHT22;8435;52.184;5.406;2024-01-15T08:20:23;4.10;99.90
16643;DHT22;8435;52.184;5.406;2024-01-15T08:22:51;4.10;99.90
16643;DHT22;8435;52.184;5.406;2024-01-15T08:25:19;4.10;99.90
16643;DHT22;8435;52.184;5.406;2024-01-15T08:27:46;4.10;99.90
16643;DHT22;8435;52.184;5.406;2024-01-15T08:30:16;4.10;99.90
16643;DHT22;8435;52.184;5.406;2024-01-15T08:32:44;4.10;99.90
16643;DHT22;8435;52.184;5.406;2024-01-15T08:35:11;4.10;99.90
16643;DHT22;8435;52.184;5.406;2024-01-15T08:37:38;4.20;99.90
16643;DHT22;8435;52.184;5.406;2024-01-15T08:40:05;4.20;99.90
16643;DHT22;8435;52.184;5.406;2024-01-15T08:42:34;4.10;99.90
16643;DHT22;8435;52.184;5.406;2024-01-15T08:45:00;4.10;99.90
16643;DHT22;8435;52.184;5.406;2024-01-15T08:47:29;4.20;99.90
16643;DHT22;8435;52.184;5.406;2024-01-15T08:49:56;4.10;99.90
16643;DHT22;8435;52.184;5.406;2024-01-15T08:52:24;4.10;99.90
16643;DHT22;8435;52.184;5.406;2024-01-15T08:54:50;4.10;99.90
16643;DHT22;8435;52.184;5.406;2024-01-15T08:57:17;4.10;99.90
16643;DHT22;8435;52.184;5.406;2024-01-15T08:59:49;4.10;99.90
16643;DHT22;8435;52.184;5.406;2024-01-15T09:02:16;4.20;99.90
16643;DHT22;8435;52.184;5.406;2024-01-15T09:04:43;4.20;99.90
16643;DHT22;8435;52.184;5.406;2024-01-15T09:07:10;4.20;99.90
16643;DHT22;8435;52.184;5.406;2024-01-15T09:09:37;4.20;99.90
16643;DHT22;8435;52.184;5.406;2024-01-15T09:12:06;4.20;99.90
16643;DHT22;8435;52.184;5.406;2024-01-15T09:14:32;4.30;99.90
16643;DHT22;8435;52.184;5.406;2024-01-15T09:17:01;4.40;99.90
16643;DHT22;8435;52.184;5.406;2024-01-15T09:19:29;4.40;99.90
16643;DHT22;8435;52.184;5.406;2024-01-15T09:21:55;4.50;99.90
16643;DHT22;8435;52.184;5.406;2024-01-15T09:24:22;4.50;99.90
16643;DHT22;8435;52.184;5.406;2024-01-15T09:26:51;4.60;99.90
16643;DHT22;8435;52.184;5.406;2024-01-15T09:29:18;4.60;99.90
16643;DHT22;8435;52.184;5.406;2024-01-15T09:31:45;4.60;99.90
16643;DHT22;8435;52.184;5.406;2024-01-15T09:34:13;4.60;99.90
16643;DHT22;8435;52.184;5.406;2024-01-15T09:36:40;4.60;99.90
16643;DHT22;8435;52.184;5.406;2024-01-15T09:39:07;4.60;99.90
16643;DHT22;8435;52.184;5.406;2024-01-15T09:41:38;4.60;99.90
16643;DHT22;8435;52.184;5.406;2024-01-15T09:44:05;4.60;99.90
16643;DHT22;8435;52.184;5.406;2024-01-15T09:46:33;4.60;99.90
16643;DHT22;8435;52.184;5.406;2024-01-15T09:49:01;4.50;99.90
16643;DHT22;8435;52.184;5.406;2024-01-15T09:51:31;4.60;99.90
16643;DHT22;8435;52.184;5.406;2024-01-15T09:53:58;4.60;99.90
16643;DHT22;8435;52.184;5.406;2024-01-15T09:56:27;4.70;99.90
16643;DHT22;8435;52.184;5.406;2024-01-15T09:58:54;4.70;99.90
16643;DHT22;8435;52.184;5.406;2024-01-15T10:01:23;4.70;99.90
16643;DHT22;8435;52.184;5.406;2024-01-15T10:03:50;4.70;99.90
16643;DHT22;8435;52.184;5.406;2024-01-15T10:06:18;4.80;99.90
16643;DHT22;8435;52.184;5.406;2024-01-15T10:08:50;4.80;99.90
16643;DHT22;8435;52.184;5.406;2024-01-15T10:11:18;4.80;99.90
16643;DHT22;8435;52.184;5.406;2024-01-15T10:13:45;4.90;99.90
16643;DHT22;8435;52.184;5.406;2024-01-15T10:16:12;4.90;99.90
16643;DHT22;8435;52.184;5.406;2024-01-15T10:18:41;5.00;99.90
16643;DHT22;8435;52.184;5.406;2024-01-15T10:21:08;5.00;99.90
16643;DHT22;8435;52.184;5.406;2024-01-15T10:23:35;5.00;99.90
16643;DHT22;8435;52.184;5.406;2024-01-15T10:26:04;5.00;99.90
16643;DHT22;8435;52.184;5.406;2024-01-15T10:28:31;5.10;99.90
16643;DHT22;8435;52.184;5.406;2024-01-15T10:30:59;5.10;99.90
16643;DHT22;8435;52.184;5.406;2024-01-15T10:33:26;5.10;99.90
16643;DHT22;8435;52.184;5.406;2024-01-15T10:35:54;5.10;99.90
16643;DHT22;8435;52.184;5.406;2024-01-15T10:38:21;5.20;99.90
16643;DHT22;8435;52.184;5.406;2024-01-15T10:40:50;5.20;99.90
16643;DHT22;8435;52.184;5.406;2024-01-15T10:43:19;5.20;99.90
16643;DHT22;8435;52.184;5.406;2024-01-15T10:45:46;5.20;99.90
16643;DHT22;8435;52.184;5.406;2024-01-15T10:48:13;5.30;99.90
16643;DHT22;8435;52.184;5.406;2024-01-15T10:50:40;5.30;99.90
16643;DHT22;8435;52.184;5.406;2024-01-15T10:53:08;5.20;99.90
16643;DHT22;8435;52.184;5.406;2024-01-15T10:55:37;5.30;99.90
16643;DHT22;8435;52.184;5.406;2024-01-15T10:58:05;5.30;99.90
16643;DHT22;8435;52.184;5.406;2024-01-15T11:00:35;5.20;99.90
16643;DHT22;8435;52.184;5.406;2024-01-15T11:03:04;5.20;99.90
16643;DHT22;8435;52.184;5.406;2024-01-15T11:05:33;5.30;99.90
16643;DHT22;8435;52.184;5.406;2024-01-15T11:08:01;5.40;99.90
16643;DHT22;8435;52.184;5.406;2024-01-15T11:10:41;5.50;99.90
16643;DHT22;8435;52.184;5.406;2024-01-15T11:13:09;5.50;99.90
16643;DHT22;8435;52.184;5.406;2024-01-15T11:15:56;5.50;99.90
16643;DHT22;8435;52.184;5.406;2024-01-15T11:18:23;5.50;99.90
16643;DHT22;8435;52.184;5.406;2024-01-15T11:21:20;5.50;99.90
16643;DHT22;8435;52.184;5.406;2024-01-15T11:23:49;5.40;99.90
16643;DHT22;8435;52.184;5.406;2024-01-15T11:26:34;5.40;99.90
16643;DHT22;8435;52.184;5.406;2024-01-15T11:29:03;5.30;99.90
16643;DHT22;8435;52.184;5.406;2024-01-15T11:32:01;5.30;99.90
16643;DHT22;8435;52.184;5.406;2024-01-15T11:34:55;5.20;99.90
16643;DHT22;8435;52.184;5.406;2024-01-15T11:37:25;5.20;99.90
16643;DHT22;8435;52.184;5.406;2024-01-15T11:39:55;5.20;99.90
16643;DHT22;8435;52.184;5.406;2024-01-15T11:42:22;5.20;99.90
16643;DHT22;8435;52.184;5.406;2024-01-15T11:44:49;5.20;99.90
16643;DHT22;8435;52.184;5.406;2024-01-15T11:50:17;5.20;99.90
16643;DHT22;8435;52.184;5.406;2024-01-15T11:52:51;5.20;99.90
16643;DHT22;8435;52.184;5.406;2024-01-15T11:55:26;5.30;99.90
16643;DHT22;8435;52.184;5.406;2024-01-15T11:57:54;5.30;99.90
16643;DHT22;8435;52.184;5.406;2024-01-15T12:00:22;5.30;99.90
16643;DHT22;8435;52.184;5.406;2024-01-15T12:02:50;5.40;99.90
16643;DHT22;8435;52.184;5.406;2024-01-15T12:05:19;5.50;99.90
16643;DHT22;8435;52.184;5.406;2024-01-15T12:07:47;5.50;99.90
16643;DHT22;8435;52.184;5.406;2024-01-15T12:10:16;5.50;99.90
16643;DHT22;8435;52.184;5.406;2024-01-15T12:12:54;5.60;99.90
16643;DHT22;8435;52.184;5.406;2024-01-15T12:15:23;5.60;99.90
16643;DHT22;8435;52.184;5.406;2024-01-15T12:17:51;5.60;99.90
16643;DHT22;8435;52.184;5.406;2024-01-15T12:20:19;5.60;99.90
16643;DHT22;8435;52.184;5.406;2024-01-15T12:22:46;5.60;99.90
16643;DHT22;8435;52.184;5.406;2024-01-15T12:25:12;5.50;99.90
16643;DHT22;8435;52.184;5.406;2024-01-15T12:27:40;5.50;99.90
16643;DHT22;8435;52.184;5.406;2024-01-15T12:30:09;5.60;99.90
16643;DHT22;8435;52.184;5.406;2024-01-15T12:32:36;5.60;99.90
16643;DHT22;8435;52.184;5.406;2024-01-15T12:35:06;5.70;99.90
16643;DHT22;8435;52.184;5.406;2024-01-15T12:37:34;5.70;99.90
16643;DHT22;8435;52.184;5.406;2024-01-15T12:40:01;5.70;99.90
16643;DHT22;8435;52.184;5.406;2024-01-15T12:42:28;5.70;99.90
16643;DHT22;8435;52.184;5.406;2024-01-15T12:44:56;5.70;99.90
16643;DHT22;8435;52.184;5.406;2024-01-15T12:47:23;5.70;99.90
16643;DHT22;8435;52.184;5.406;2024-01-15T12:49:51;5.70;99.90
16643;DHT22;8435;52.184;5.406;2024-01-15T12:52:24;5.70;99.90
16643;DHT22;8435;52.184;5.406;2024-01-15T12:54:53;5.60;99.90
16643;DHT22;8435;52.184;5.406;2024-01-15T12:57:20;5.50;99.90
16643;DHT22;8435;52.184;5.406;2024-01-15T12:59:47;5.50;99.90
16643;DHT22;8435;52.184;5.406;2024-01-15T13:02:14;5.50;99.90
16643;DHT22;8435;52.184;5.406;2024-01-15T13:04:41;5.50;99.90
16643;DHT22;8435;52.184;5.406;2024-01-15T13:07:08;5.50;99.90
16643;DHT22;8435;52.184;5.406;2024-01-15T13:09:36;5.50;99.90
16643;DHT22;8435;52.184;5.406;2024-01-15T13:12:05;5.40;99.90
16643;DHT22;8435;52.184;5.406;2024-01-15T13:14:32;5.50;99.90
16643;DHT22;8435;52.184;5.406;2024-01-15T13:16:59;5.40;99.90
16643;DHT22;8435;52.184;5.406;2024-01-15T13:19:26;5.40;99.90
16643;DHT22;8435;52.184;5.406;2024-01-15T13:21:53;5.40;99.90
16643;DHT22;8435;52.184;5.406;2024-01-15T13:24:21;5.40;99.90
16643;DHT22;8435;52.184;5.406;2024-01-15T13:26:50;5.40;99.90
16643;DHT22;8435;52.184;5.406;2024-01-15T13:29:17;5.40;99.90
16643;DHT22;8435;52.184;5.406;2024-01-15T13:31:43;5.30;99.90
16643;DHT22;8435;52.184;5.406;2024-01-15T13:34:12;5.40;99.90
16643;DHT22;8435;52.184;5.406;2024-01-15T13:36:39;5.30;99.90
16643;DHT22;8435;52.184;5.406;2024-01-15T13:39:06;5.30;99.90
16643;DHT22;8435;52.184;5.406;2024-01-15T13:41:36;5.30;99.90
16643;DHT22;8435;52.184;5.406;2024-01-15T13:44:04;5.30;99.90
16643;DHT22;8435;52.184;5.406;2024-01-15T13:46:33;5.40;99.90
16643;DHT22;8435;52.184;5.406;2024-01-15T13:49:03;5.40;99.90
16643;DHT22;8435;52.184;5.406;2024-01-15T13:51:31;5.40;99.90
16643;DHT22;8435;52.184;5.406;2024-01-15T13:53:58;5.50;99.90
16643;DHT22;8435;52.184;5.406;2024-01-15T13:56:25;5.50;99.90
16643;DHT22;8435;52.184;5.406;2024-01-15T13:58:57;5.60;99.90
16643;DHT22;8435;52.184;5.406;2024-01-15T14:01:25;5.60;99.90
16643;DHT22;8435;52.184;5.406;2024-01-15T14:03:52;5.60;99.90
16643;DHT22;8435;52.184;5.406;2024-01-15T14:06:19;5.60;99.90
16643;DHT22;8435;52.184;5.406;2024-01-15T14:08:46;5.60;99.90
16643;DHT22;8435;52.184;5.406;2024-01-15T14:11:13;5.60;99.90
16643;DHT22;8435;52.184;5.406;2024-01-15T14:13:40;5.60;99.90
16643;DHT22;8435;52.184;5.406;2024-01-15T14:16:06;5.60;99.90
16643;DHT22;8435;52.184;5.406;2024-01-15T14:18:36;5.60;99.90
16643;DHT22;8435;52.184;5.406;2024-01-15T14:21:03;5.60;99.90
16643;DHT22;8435;52.184;5.406;2024-01-15T14:23:30;5.70;99.90
16643;DHT22;8435;52.184;5.406;2024-01-15T14:25:57;5.70;99.90
16643;DHT22;8435;52.184;5.406;2024-01-15T14:28:26;5.70;99.90
16643;DHT22;8435;52.184;5.406;2024-01-15T14:30:52;5.70;99.90
16643;DHT22;8435;52.184;5.406;2024-01-15T14:33:21;5.70;99.90
16643;DHT22;8435;52.184;5.406;2024-01-15T14:35:49;5.70;99.90
16643;DHT22;8435;52.184;5.406;2024-01-15T14:38:16;5.80;99.90
16643;DHT22;8435;52.184;5.406;2024-01-15T14:40:43;5.80;99.90
16643;DHT22;8435;52.184;5.406;2024-01-15T14:43:10;5.80;99.90
16643;DHT22;8435;52.184;5.406;2024-01-15T14:45:37;5.90;99.90
16643;DHT22;8435;52.184;5.406;2024-01-15T14:48:04;5.90;99.90
16643;DHT22;8435;52.184;5.406;2024-01-15T14:50:31;5.90;99.90
16643;DHT22;8435;52.184;5.406;2024-01-15T14:53:02;5.90;99.90
16643;DHT22;8435;52.184;5.406;2024-01-15T14:55:29;5.90;99.90
16643;DHT22;8435;52.184;5.406;2024-01-15T14:57:56;5.90;99.90
16643;DHT22;8435;52.184;5.406;2024-01-15T15:00:23;5.80;99.90
16643;DHT22;8435;52.184;5.406;2024-01-15T15:02:50;5.80;99.90
16643;DHT22;8435;52.184;5.406;2024-01-15T15:05:17;5.70;99.90
16643;DHT22;8435;52.184;5.406;2024-01-15T15:07:43;5.70;99.90
16643;DHT22;8435;52.184;5.406;2024-01-15T15:10:12;5.60;99.90
16643;DHT22;8435;52.184;5.406;2024-01-15T15:12:38;5.60;99.90
16643;DHT22;8435;52.184;5.406;2024-01-15T15:15:05;5.60;99.90
16643;DHT22;8435;52.184;5.406;2024-01-15T15:17:32;5.50;99.90
16643;DHT22;8435;52.184;5.406;2024-01-15T15:20:00;5.50;99.90
16643;DHT22;8435;52.184;5.406;2024-01-15T15:22:28;5.50;99.90
16643;DHT22;8435;52.184;5.406;2024-01-15T15:24:54;5.40;99.90
16643;DHT22;8435;52.184;5.406;2024-01-15T15:27:25;5.40;99.90
16643;DHT22;8435;52.184;5.406;2024-01-15T15:29:54;5.40;99.90
16643;DHT22;8435;52.184;5.406;2024-01-15T15:32:21;5.40;99.90
16643;DHT22;8435;52.184;5.406;2024-01-15T15:34:48;5.40;99.90
16643;DHT22;8435;52.184;5.406;2024-01-15T15:37:14;5.40;99.90
16643;DHT22;8435;52.184;5.406;2024-01-15T15:39:42;5.40;99.90
16643;DHT22;8435;52.184;5.406;2024-01-15T15:42:09;5.40;99.90
16643;DHT22;8435;52.184;5.406;2024-01-15T15:44:37;5.30;99.90
16643;DHT22;8435;52.184;5.406;2024-01-15T15:47:08;5.30;99.90
16643;DHT22;8435;52.184;5.406;2024-01-15T15:49:35;5.30;99.90
16643;DHT22;8435;52.184;5.406;2024-01-15T15:52:04;5.30;99.90
16643;DHT22;8435;52.184;5.406;2024-01-15T15:54:31;5.30;99.90
16643;DHT22;8435;52.184;5.406;2024-01-15T15:57:00;5.30;99.90
16643;DHT22;8435;52.184;5.406;2024-01-15T15:59:26;5.30;99.90
16643;DHT22;8435;52.184;5.406;2024-01-15T16:01:55;5.20;99.90
16643;DHT22;8435;52.184;5.406;2024-01-15T16:04:22;5.20;99.90
16643;DHT22;8435;52.184;5.406;2024-01-15T16:06:49;5.20;99.90
16643;DHT22;8435;52.184;5.406;2024-01-15T16:09:16;5.20;99.90